Hlavní strana
METAR-TAF:

METAR-TAF

Letiště :

Letiště Ference Liszta Budapešť

Budapešť, Maďarsko

zeměpisná šířka: 47-26N, zeměpisná délka: 019-16E, výška: 151 m

Aktuální stav počasí

Zpráva byla vytvořena před 29 minutami, v 02:30 UTC
vítr z různých směrů 3 kt
Teplota 17°C
Vlhkost vzduchu 94%
Tlak 1018 hPa
Viditelnost 10 km a více
Žádná oblačnost pod 1500 m, nevyskytují se cumulonimby.

METAR: LHBP 200230Z VRB03KT CAVOK 17/16 Q1018 NOSIG

Čas: 04:59 (02:59 UTC)

Předpověď počasí

Zpráva byla vytvořena před 3 hodinami a 44 minutami, v 23:15 UTC
Předpověď platná od 20 v 00 UTC do 20 v 24 UTC
vítr z různých směrů 3 kt
Viditelnost 10 km a více
Žádná oblačnost pod 1500 m, nevyskytují se cumulonimby.
Změna
od 20 v 09 UTC do 20 v 11 UTC
Jihojihovýchodní vítr 7 kt
Změna
od 20 v 20 UTC do 20 v 22 UTC
vítr z různých směrů 3 kt

TAF: LHBP 192315Z 2000/2024 VRB03KT CAVOK BECMG 2009/2011 16007KT BECMG 2020/2022 VRB03KT

Stav a předpovědi počasí z více než 4 000 letišť (zprávy METAR a TAF).

Červené a žluté tečky na mapě představují dostupné meteorologické stanice.

Když kurzor umístíte na tečku, zobrazí se název stanice.

Pak kliknutím zobrazíte stav a předpověď počasí.

Chcete-li změnit mapu, kliknutím na zelené tlačítko se znaménkem +mapu přiblížíte, kliknutím na zelené tlačítko se znaménkem – mapu oddálíte a kliknutím na zelené šipky přejdete na sousední mapy.


METAR-TAF: